createdAt,value
2019-02-12T00:02:20.255Z,94.80
2019-02-12T00:04:48.712Z,95.50
2019-02-12T00:07:17.163Z,95.80
2019-02-12T00:09:45.606Z,93.10
2019-02-12T00:12:14.062Z,92.30
2019-02-12T00:14:42.494Z,91.50
2019-02-12T00:17:10.931Z,90.50
2019-02-12T00:19:39.377Z,91.70
2019-02-12T00:22:07.890Z,91.40
2019-02-12T00:24:36.344Z,93.00
2019-02-12T00:27:04.778Z,92.50
2019-02-12T00:29:33.370Z,92.10
2019-02-12T00:32:01.806Z,89.60
2019-02-12T00:34:30.278Z,87.50
2019-02-12T00:36:58.769Z,75.40
2019-02-12T00:39:27.227Z,77.50
2019-02-12T00:41:55.693Z,81.00
2019-02-12T00:44:24.223Z,88.90
2019-02-12T00:46:52.658Z,94.30
2019-02-12T00:49:21.183Z,95.10
2019-02-12T00:51:49.622Z,71.20
2019-02-12T00:54:18.070Z,76.90
2019-02-12T00:56:46.530Z,72.40
2019-02-12T00:59:14.992Z,66.10
2019-02-12T01:01:43.506Z,63.40
2019-02-12T01:04:11.960Z,63.40
2019-02-12T01:06:40.394Z,60.80
2019-02-12T01:09:08.914Z,66.00
2019-02-12T01:11:37.362Z,67.50
2019-02-12T01:14:05.814Z,68.30
2019-02-12T01:16:34.272Z,64.40
2019-02-12T01:19:02.714Z,62.60
2019-02-12T01:21:31.262Z,66.40
2019-02-12T01:23:59.696Z,68.40
2019-02-12T01:26:28.150Z,70.80
2019-02-12T01:28:56.589Z,72.50
2019-02-12T01:31:25.043Z,71.30
2019-02-12T01:33:53.482Z,67.80
2019-02-12T01:36:22.346Z,67.40
2019-02-12T01:38:50.793Z,72.80
2019-02-12T01:41:19.307Z,76.70
2019-02-12T01:43:47.754Z,75.30
2019-02-12T01:46:16.186Z,76.20
2019-02-12T01:48:44.647Z,80.90
2019-02-12T01:51:13.077Z,79.00
2019-02-12T01:53:41.527Z,82.50
2019-02-12T01:56:09.990Z,78.70
2019-02-12T01:58:38.430Z,89.70
2019-02-12T02:01:06.878Z,67.50
2019-02-12T02:03:35.314Z,68.60
2019-02-12T02:06:03.850Z,64.00
2019-02-12T02:08:32.290Z,62.10
2019-02-12T02:11:00.790Z,62.80
2019-02-12T02:13:29.241Z,62.80
2019-02-12T02:15:57.762Z,63.30
2019-02-12T02:18:26.289Z,63.30
2019-02-12T02:20:54.726Z,64.10
2019-02-12T02:23:23.254Z,65.80
2019-02-12T02:25:51.687Z,69.80
2019-02-12T02:28:20.140Z,69.00
2019-02-12T02:30:48.580Z,69.80
2019-02-12T02:33:17.026Z,68.30
2019-02-12T02:35:45.463Z,68.00
2019-02-12T02:38:13.914Z,66.50
2019-02-12T02:40:42.360Z,65.90
2019-02-12T02:43:10.948Z,65.00
2019-02-12T02:45:39.470Z,65.00
2019-02-12T02:48:07.986Z,65.10
2019-02-12T02:50:36.434Z,66.90
2019-02-12T02:53:04.886Z,68.30
2019-02-12T02:55:33.338Z,70.00
2019-02-12T02:58:01.851Z,68.30
2019-02-12T03:00:30.306Z,66.30
2019-02-12T03:02:58.745Z,66.90
2019-02-12T03:05:27.196Z,68.60
2019-02-12T03:07:55.633Z,64.50
2019-02-12T03:10:24.117Z,63.30
2019-02-12T03:12:52.641Z,62.10
2019-02-12T03:15:21.090Z,60.40
2019-02-12T03:17:49.553Z,59.40
2019-02-12T03:20:18.065Z,59.70
2019-02-12T03:22:46.520Z,58.20
2019-02-12T03:25:14.957Z,56.70
2019-02-12T03:27:43.412Z,57.00
2019-02-12T03:30:12.762Z,56.50
2019-02-12T03:32:41.355Z,56.10
2019-02-12T03:35:10.756Z,56.50
2019-02-12T03:37:39.265Z,57.10
2019-02-12T03:40:12.215Z,58.00
2019-02-12T03:42:40.662Z,57.90
2019-02-12T03:45:12.020Z,57.80
2019-02-12T03:47:40.505Z,57.30
2019-02-12T03:50:10.788Z,57.30
2019-02-12T03:52:39.305Z,57.80
2019-02-12T03:55:14.799Z,58.60
2019-02-12T03:57:43.390Z,58.20
2019-02-12T04:00:16.304Z,56.20
2019-02-12T04:03:01.353Z,57.40
2019-02-12T04:05:29.869Z,59.20
2019-02-12T04:07:58.315Z,60.20
2019-02-12T04:10:26.817Z,62.80
2019-02-12T04:12:55.334Z,66.30
2019-02-12T04:15:23.855Z,75.40
2019-02-12T04:17:52.294Z,72.50
2019-02-12T04:20:20.827Z,80.30
2019-02-12T04:22:49.286Z,84.20
2019-02-12T04:25:17.789Z,87.40
2019-02-12T04:27:46.240Z,84.60
2019-02-12T04:30:14.746Z,89.10
2019-02-12T04:32:43.195Z,92.00
2019-02-12T04:35:11.635Z,91.80
2019-02-12T04:37:40.082Z,68.80
2019-02-12T04:40:10.867Z,70.70
2019-02-12T04:42:39.314Z,82.20
2019-02-12T04:45:09.999Z,90.60
2019-02-12T04:47:38.442Z,79.90
2019-02-12T04:50:09.962Z,62.60
2019-02-12T04:52:38.417Z,61.10
2019-02-12T04:55:08.902Z,58.70
2019-02-12T04:57:37.339Z,58.70
2019-02-12T05:00:09.206Z,56.70
2019-02-12T05:02:37.714Z,55.40
2019-02-12T05:05:09.118Z,53.80
2019-02-12T05:07:37.622Z,52.80
2019-02-12T05:10:09.185Z,52.20
2019-02-12T05:12:37.622Z,51.80
2019-02-12T05:15:08.515Z,51.10
2019-02-12T05:17:37.027Z,51.90
2019-02-12T05:20:08.797Z,53.50
2019-02-12T05:22:43.534Z,53.90
2019-02-12T05:25:08.310Z,52.90
2019-02-12T05:27:36.761Z,52.80
2019-02-12T05:30:12.895Z,53.80
2019-02-12T05:32:41.352Z,53.30
2019-02-12T05:35:09.931Z,54.30
2019-02-12T05:37:38.395Z,55.60
2019-02-12T05:40:09.362Z,60.70
2019-02-12T05:42:37.882Z,61.40
2019-02-12T05:45:11.564Z,59.30
2019-02-12T05:47:40.094Z,57.90
2019-02-12T05:50:13.495Z,55.90
2019-02-12T05:52:42.014Z,57.60
2019-02-12T05:55:10.581Z,56.30
2019-02-12T05:57:39.042Z,56.50
2019-02-12T06:00:18.218Z,55.10
2019-02-12T06:02:46.674Z,55.80
2019-02-12T06:05:18.188Z,54.40
2019-02-12T06:07:46.633Z,54.30
2019-02-12T06:10:15.078Z,54.50
2019-02-12T06:12:43.516Z,54.70
2019-02-12T06:15:11.962Z,54.40
2019-02-12T06:17:40.401Z,54.00
2019-02-12T06:20:09.007Z,53.30
2019-02-12T06:22:37.503Z,52.60
2019-02-12T06:25:08.117Z,51.90
2019-02-12T06:27:37.038Z,52.00
2019-02-12T06:30:08.905Z,50.60
2019-02-12T06:32:37.355Z,49.80
2019-02-12T06:35:08.242Z,49.00
2019-02-12T06:37:36.690Z,48.70
2019-02-12T06:40:08.487Z,48.50
2019-02-12T06:42:36.921Z,48.70
2019-02-12T06:45:08.722Z,49.50
2019-02-12T06:47:37.234Z,49.80
2019-02-12T06:50:13.811Z,49.00
2019-02-12T06:52:42.313Z,48.40
2019-02-12T06:55:11.504Z,48.20
2019-02-12T06:57:40.078Z,47.50
2019-02-12T07:00:13.259Z,47.70
2019-02-12T07:03:09.890Z,48.30
2019-02-12T07:05:50.093Z,47.50
2019-02-12T07:08:47.550Z,45.60
2019-02-12T07:11:35.446Z,46.10
2019-02-12T07:14:25.393Z,46.50
2019-02-12T07:17:08.918Z,46.90
2019-02-12T07:19:46.337Z,45.90
2019-02-12T07:22:17.856Z,46.30
2019-02-12T07:24:55.308Z,47.30
2019-02-12T07:27:35.917Z,47.30
2019-02-12T07:30:16.549Z,47.50
2019-02-12T07:32:50.984Z,47.60
2019-02-12T07:35:48.386Z,47.60
2019-02-12T07:38:32.069Z,47.10
2019-02-12T07:41:20.450Z,46.30
2019-02-12T07:43:51.914Z,46.40
2019-02-12T07:46:44.610Z,46.10
2019-02-12T07:49:19.222Z,46.00
2019-02-12T07:52:05.668Z,45.00
2019-02-12T07:54:52.141Z,45.20
2019-02-12T07:57:29.360Z,45.80
2019-02-12T08:00:00.950Z,45.80
2019-02-12T08:02:35.582Z,45.10
2019-02-12T08:05:15.530Z,45.00
2019-02-12T08:08:17.690Z,45.60
2019-02-12T08:10:52.009Z,45.20
2019-02-12T08:13:23.530Z,45.80
2019-02-12T08:16:03.670Z,45.90
2019-02-12T08:18:51.454Z,46.50
2019-02-12T08:21:31.876Z,45.50
2019-02-12T08:24:12.155Z,45.80
2019-02-12T08:27:07.203Z,45.50
2019-02-12T08:30:15.477Z,45.10
2019-02-12T08:33:02.146Z,44.80
2019-02-12T08:35:42.787Z,43.80
2019-02-12T08:38:35.402Z,43.80
2019-02-12T08:41:38.974Z,44.00
2019-02-12T08:44:19.229Z,43.00
2019-02-12T08:46:59.523Z,42.20
2019-02-12T08:50:00.019Z,41.20
2019-02-12T08:52:49.919Z,41.10
2019-02-12T08:55:44.199Z,40.90
2019-02-12T08:58:27.559Z,41.60
2019-02-12T09:01:14.209Z,41.20
2019-02-12T09:03:57.458Z,42.20
2019-02-12T09:06:54.036Z,41.50
2019-02-12T09:09:45.241Z,40.80
2019-02-12T09:12:39.764Z,40.80
2019-02-12T09:15:44.793Z,41.00
2019-02-12T09:18:25.167Z,40.80
2019-02-12T09:21:02.778Z,40.60
2019-02-12T09:23:43.229Z,39.60
2019-02-12T09:26:26.454Z,40.70
2019-02-12T09:29:13.310Z,40.70
2019-02-12T09:31:47.806Z,41.80
2019-02-12T09:34:25.358Z,41.50
2019-02-12T09:37:05.715Z,42.20
2019-02-12T09:39:49.071Z,41.00
2019-02-12T09:42:38.503Z,41.60
2019-02-12T09:45:12.571Z,41.60
2019-02-12T09:47:46.811Z,40.70
2019-02-12T09:50:36.233Z,39.70
2019-02-12T09:53:30.016Z,39.60
2019-02-12T09:56:04.464Z,40.70
2019-02-12T09:59:03.701Z,41.60
2019-02-12T10:01:35.230Z,40.60
2019-02-12T10:04:18.156Z,39.00
2019-02-12T10:06:58.538Z,39.40
2019-02-12T10:09:38.991Z,37.70
2019-02-12T10:12:22.173Z,38.00
2019-02-12T10:15:05.697Z,36.50
2019-02-12T10:17:40.050Z,36.60
2019-02-12T10:20:37.286Z,37.30
2019-02-12T10:23:34.511Z,38.20
2019-02-12T10:26:06.115Z,38.30
2019-02-12T10:29:06.362Z,39.10
2019-02-12T10:31:42.846Z,37.80
2019-02-12T10:34:11.773Z,37.90
2019-02-12T10:36:40.333Z,37.20
2019-02-12T10:39:10.118Z,37.80
2019-02-12T10:41:38.638Z,37.40
2019-02-12T10:44:07.073Z,35.90
2019-02-12T10:46:35.668Z,37.20
2019-02-12T10:49:04.190Z,37.80
2019-02-12T10:51:32.778Z,37.30
2019-02-12T10:54:01.301Z,37.00
2019-02-12T10:56:29.742Z,36.30
2019-02-12T10:58:58.190Z,37.30
2019-02-12T11:01:26.707Z,37.20
2019-02-12T11:03:55.162Z,37.20
2019-02-12T11:06:23.594Z,37.40
2019-02-12T11:08:52.034Z,38.60
2019-02-12T11:11:20.550Z,38.50
2019-02-12T11:13:48.990Z,37.60
2019-02-12T11:16:17.437Z,38.90
2019-02-12T11:18:45.873Z,39.10
2019-02-12T11:21:14.327Z,39.30
2019-02-12T11:23:42.777Z,39.60
2019-02-12T11:26:11.218Z,40.50
2019-02-12T11:28:39.670Z,40.50
2019-02-12T11:31:08.118Z,39.90
2019-02-12T11:33:36.638Z,40.70
2019-02-12T11:36:05.234Z,41.00
2019-02-12T11:38:33.671Z,41.50
2019-02-12T11:41:02.137Z,41.50
2019-02-12T11:43:30.600Z,41.50
2019-02-12T11:45:59.110Z,41.50
2019-02-12T11:48:27.544Z,41.30
2019-02-12T11:50:56.059Z,41.60
2019-02-12T11:53:24.511Z,41.80
2019-02-12T11:55:52.949Z,41.70
2019-02-12T11:58:21.411Z,42.40
2019-02-12T12:00:51.503Z,42.30
2019-02-12T12:03:19.951Z,42.50
2019-02-12T12:05:48.387Z,42.00
2019-02-12T12:08:16.842Z,41.70
2019-02-12T12:10:45.290Z,41.40
2019-02-12T12:13:13.726Z,40.90
2019-02-12T12:15:42.182Z,41.20
2019-02-12T12:18:10.616Z,41.30
2019-02-12T12:20:39.078Z,41.50
2019-02-12T12:23:07.590Z,39.30
2019-02-12T12:25:36.034Z,39.40
2019-02-12T12:28:04.607Z,37.60
2019-02-12T12:30:33.130Z,38.60
2019-02-12T12:33:01.585Z,38.70
2019-02-12T12:35:30.021Z,39.20
2019-02-12T12:37:58.491Z,37.70
2019-02-12T12:40:26.930Z,38.30
2019-02-12T12:42:55.374Z,37.40
2019-02-12T12:45:23.967Z,36.50
2019-02-12T12:47:52.401Z,37.30
2019-02-12T12:50:20.858Z,37.50
2019-02-12T12:52:49.310Z,36.90
2019-02-12T12:55:17.751Z,36.60
2019-02-12T12:57:46.202Z,36.50
2019-02-12T13:00:16.762Z,37.00
2019-02-12T13:02:45.358Z,38.10
2019-02-12T13:05:13.893Z,36.80
2019-02-12T13:07:42.437Z,36.70
2019-02-12T13:10:13.594Z,36.80
2019-02-12T13:12:42.105Z,36.60
2019-02-12T13:15:12.709Z,36.40
2019-02-12T13:17:41.205Z,36.90
2019-02-12T13:20:12.189Z,36.60
2019-02-12T13:22:40.645Z,36.50
2019-02-12T13:25:10.326Z,35.40
2019-02-12T13:27:38.856Z,35.60
2019-02-12T13:30:18.771Z,36.20
2019-02-12T13:32:47.214Z,34.70
2019-02-12T13:35:15.655Z,36.10
2019-02-12T13:37:44.109Z,35.50
2019-02-12T13:40:13.501Z,35.30
2019-02-12T13:42:42.086Z,35.50
2019-02-12T13:45:17.280Z,35.60
2019-02-12T13:47:45.801Z,34.90
2019-02-12T13:50:14.360Z,34.30
2019-02-12T13:52:42.796Z,33.90
2019-02-12T13:55:17.287Z,34.70
2019-02-12T13:57:42.049Z,34.10
2019-02-12T14:00:17.979Z,34.40
2019-02-12T14:02:46.483Z,34.40
2019-02-12T14:05:23.661Z,34.60
2019-02-12T14:07:52.206Z,33.90
2019-02-12T14:10:20.678Z,34.00
2019-02-12T14:12:49.133Z,34.30
2019-02-12T14:15:17.582Z,34.30
2019-02-12T14:17:46.030Z,35.10
2019-02-12T14:20:16.214Z,34.10
2019-02-12T14:22:44.665Z,34.60
2019-02-12T14:25:15.215Z,35.10
2019-02-12T14:27:43.824Z,34.80
2019-02-12T14:30:14.209Z,35.10
2019-02-12T14:32:42.795Z,35.80
2019-02-12T14:35:13.397Z,37.60
2019-02-12T14:37:42.027Z,34.30
2019-02-12T14:40:12.135Z,35.80
2019-02-12T14:42:40.573Z,36.10
2019-02-12T14:45:19.075Z,36.70
2019-02-12T14:47:47.574Z,35.30
2019-02-12T14:50:20.328Z,35.90
2019-02-12T14:52:48.833Z,35.20
2019-02-12T14:55:17.271Z,36.80
2019-02-12T14:57:45.750Z,36.70
2019-02-12T15:00:18.501Z,35.70
2019-02-12T15:02:47.021Z,35.50
2019-02-12T15:05:15.532Z,34.80
2019-02-12T15:07:43.981Z,35.60
2019-02-12T15:10:13.660Z,35.00
2019-02-12T15:12:42.414Z,36.40
2019-02-12T15:15:11.621Z,36.10
2019-02-12T15:17:40.054Z,35.60
2019-02-12T15:20:14.634Z,35.20
2019-02-12T15:22:43.086Z,35.60
2019-02-12T15:25:14.462Z,36.50
2019-02-12T15:27:42.913Z,36.70
2019-02-12T15:30:16.464Z,36.60
2019-02-12T15:32:44.918Z,37.40
2019-02-12T15:35:13.857Z,38.20
2019-02-12T15:37:42.338Z,38.20
2019-02-12T15:40:13.487Z,38.10
2019-02-12T15:42:41.945Z,37.70
2019-02-12T15:45:15.970Z,38.70
2019-02-12T15:47:44.489Z,39.00
2019-02-12T15:50:13.178Z,38.20
2019-02-12T15:52:41.630Z,37.30
2019-02-12T15:55:12.226Z,37.60
2019-02-12T15:57:43.130Z,37.50
2019-02-12T16:00:20.604Z,38.90
2019-02-12T16:02:49.649Z,39.10
2019-02-12T16:05:18.232Z,38.50
2019-02-12T16:07:47.490Z,38.70
2019-02-12T16:10:20.726Z,39.30
2019-02-12T16:12:51.298Z,39.40
2019-02-12T16:15:22.429Z,39.70
2019-02-12T16:17:50.569Z,39.30
2019-02-12T16:20:19.006Z,39.60
2019-02-12T16:22:47.458Z,40.60
2019-02-12T16:25:15.967Z,41.30
2019-02-12T16:27:44.494Z,41.20
2019-02-12T16:30:21.142Z,41.50
2019-02-12T16:32:49.589Z,41.30
2019-02-12T16:35:18.515Z,41.50
2019-02-12T16:37:47.024Z,41.40
2019-02-12T16:40:16.918Z,40.60
2019-02-12T16:42:45.427Z,41.70
2019-02-12T16:45:40.889Z,44.50
2019-02-12T16:48:09.331Z,44.40
2019-02-12T16:50:37.783Z,43.50
2019-02-12T16:53:06.226Z,42.50
2019-02-12T16:55:34.679Z,41.90
2019-02-12T16:58:03.122Z,42.10
2019-02-12T17:00:31.632Z,42.60
2019-02-12T17:03:00.086Z,42.80
2019-02-12T17:05:28.662Z,43.20
2019-02-12T17:07:57.114Z,43.30
2019-02-12T17:10:25.619Z,43.20
2019-02-12T17:12:54.074Z,43.10
2019-02-12T17:15:22.594Z,43.40
2019-02-12T17:17:51.101Z,43.00
2019-02-12T17:20:24.277Z,43.00
2019-02-12T17:22:52.793Z,42.70
2019-02-12T17:25:21.600Z,42.50
2019-02-12T17:27:50.104Z,42.70
2019-02-12T17:30:19.159Z,42.90
2019-02-12T17:32:47.731Z,42.80
2019-02-12T17:35:16.244Z,43.30
2019-02-12T17:37:44.834Z,44.10
2019-02-12T17:40:17.107Z,43.40
2019-02-12T17:42:45.625Z,43.60
2019-02-12T17:45:18.154Z,43.50
2019-02-12T17:47:46.668Z,43.20
2019-02-12T17:50:15.763Z,43.70
2019-02-12T17:52:44.336Z,43.80
2019-02-12T17:55:12.923Z,43.90
2019-02-12T17:57:41.445Z,44.90
2019-02-12T18:00:17.094Z,44.50
2019-02-12T18:02:45.622Z,44.70
2019-02-12T18:05:14.178Z,44.90
2019-02-12T18:07:42.615Z,45.10
2019-02-12T18:10:11.999Z,45.50
2019-02-12T18:12:40.450Z,45.40
2019-02-12T18:15:11.232Z,46.10
2019-02-12T18:17:39.690Z,45.40
2019-02-12T18:20:10.853Z,46.30
2019-02-12T18:22:39.290Z,46.40
2019-02-12T18:25:09.894Z,46.30
2019-02-12T18:27:38.941Z,46.30
2019-02-12T18:30:18.061Z,46.90
2019-02-12T18:32:46.576Z,47.30
2019-02-12T18:35:15.239Z,46.40
2019-02-12T18:37:43.683Z,46.70
2019-02-12T18:40:14.053Z,46.20
2019-02-12T18:42:42.566Z,46.30
2019-02-12T18:45:19.973Z,46.60
2019-02-12T18:47:48.474Z,46.90
2019-02-12T18:50:16.991Z,46.80
2019-02-12T18:52:45.496Z,47.30
2019-02-12T18:55:15.189Z,47.10
2019-02-12T18:57:43.629Z,47.00
2019-02-12T19:00:20.672Z,47.10
2019-02-12T19:02:49.182Z,47.30
2019-02-12T19:05:17.686Z,48.00
2019-02-12T19:07:46.143Z,47.70
2019-02-12T19:10:18.462Z,48.00
2019-02-12T19:12:46.927Z,47.90
2019-02-12T19:15:22.646Z,48.80
2019-02-12T19:17:54.250Z,49.20
2019-02-12T19:20:22.686Z,48.40
2019-02-12T19:22:51.135Z,48.40
2019-02-12T19:25:19.590Z,48.70
2019-02-12T19:27:48.025Z,49.20
2019-02-12T19:30:16.722Z,49.20
2019-02-12T19:32:45.180Z,49.60
2019-02-12T19:35:13.778Z,49.40
2019-02-12T19:37:42.281Z,50.00
2019-02-12T19:40:11.754Z,49.90
2019-02-12T19:42:40.281Z,49.90
2019-02-12T19:45:14.306Z,50.60
2019-02-12T19:47:42.764Z,51.30
2019-02-12T19:50:11.888Z,51.00
2019-02-12T19:52:40.418Z,51.70
2019-02-12T19:55:09.982Z,52.90
2019-02-12T19:57:38.494Z,52.50
2019-02-12T20:00:17.284Z,53.10
2019-02-12T20:02:45.795Z,53.60
2019-02-12T20:05:14.314Z,53.40
2019-02-12T20:07:42.861Z,54.00
2019-02-12T20:10:12.744Z,55.60
2019-02-12T20:12:41.193Z,55.10
2019-02-12T20:15:15.566Z,53.80
2019-02-12T20:17:44.018Z,53.80
2019-02-12T20:20:13.365Z,53.50
2019-02-12T20:22:41.951Z,54.70
2019-02-12T20:25:11.042Z,54.90
2019-02-12T20:27:39.549Z,54.90
2019-02-12T20:30:19.875Z,54.80
2019-02-12T20:32:48.518Z,57.00
2019-02-12T20:35:21.966Z,55.60
2019-02-12T20:37:50.743Z,55.00
2019-02-12T20:40:19.279Z,54.70
2019-02-12T20:42:47.790Z,55.00
2019-02-12T20:45:19.892Z,57.00
2019-02-12T20:47:48.485Z,56.30
2019-02-12T20:50:21.241Z,54.20
2019-02-12T20:52:49.765Z,53.30
2019-02-12T20:55:18.374Z,53.10
2019-02-12T20:57:46.937Z,52.00
2019-02-12T21:00:21.778Z,52.00
2019-02-12T21:02:50.370Z,53.30
2019-02-12T21:05:18.942Z,53.20
2019-02-12T21:07:47.530Z,54.50
2019-02-12T21:10:18.673Z,54.90
2019-02-12T21:12:47.265Z,55.30
2019-02-12T21:15:24.183Z,54.40
2019-02-12T21:17:52.934Z,54.10
2019-02-12T21:20:21.447Z,54.80
2019-02-12T21:22:50.613Z,54.90
2019-02-12T21:25:19.216Z,54.50
2019-02-12T21:27:49.327Z,52.90
2019-02-12T21:30:29.577Z,52.60
2019-02-12T21:32:59.735Z,52.40
2019-02-12T21:35:28.398Z,52.00
2019-02-12T21:37:57.374Z,52.10
2019-02-12T21:40:29.131Z,53.70
2019-02-12T21:42:57.650Z,54.50
2019-02-12T21:45:26.196Z,54.60
2019-02-12T21:47:55.849Z,54.00
2019-02-12T21:50:24.426Z,55.20
2019-02-12T21:52:53.029Z,55.00
2019-02-12T21:55:22.282Z,55.70
2019-02-12T21:57:50.875Z,56.40
2019-02-12T22:00:20.561Z,59.00
2019-02-12T22:02:49.170Z,60.10
2019-02-12T22:05:18.135Z,60.60
2019-02-12T22:07:46.709Z,59.30
2019-02-12T22:10:20.357Z,58.10
2019-02-12T22:12:48.800Z,57.40
2019-02-12T22:15:17.253Z,56.50
2019-02-12T22:17:45.692Z,57.30
2019-02-12T22:20:18.871Z,57.10
2019-02-12T22:22:47.311Z,58.50
2019-02-12T22:25:15.762Z,59.80
2019-02-12T22:27:44.222Z,60.60
2019-02-12T22:30:15.743Z,59.60
2019-02-12T22:32:44.339Z,60.70
2019-02-12T22:35:14.548Z,67.10
2019-02-12T22:37:43.030Z,69.60
2019-02-12T22:40:13.310Z,69.30
2019-02-12T22:42:41.768Z,73.90
2019-02-12T22:45:13.292Z,69.70
2019-02-12T22:47:41.737Z,67.30
2019-02-12T22:50:11.532Z,79.50
2019-02-12T22:52:39.967Z,71.40
2019-02-12T22:55:09.847Z,77.00
2019-02-12T22:57:38.366Z,69.70
2019-02-12T23:00:22.790Z,71.90
2019-02-12T23:02:51.254Z,69.50
2019-02-12T23:05:19.698Z,76.00
2019-02-12T23:07:48.222Z,81.40
2019-02-12T23:10:16.722Z,83.30
2019-02-12T23:12:45.174Z,81.90
2019-02-12T23:15:13.636Z,82.00
2019-02-12T23:17:42.074Z,86.50
2019-02-12T23:20:10.586Z,89.60
2019-02-12T23:22:39.300Z,88.70
2019-02-12T23:25:07.854Z,90.10
2019-02-12T23:27:36.321Z,95.40
2019-02-12T23:30:10.039Z,96.80
2019-02-12T23:32:38.493Z,96.80
2019-02-12T23:35:07.277Z,96.70
2019-02-12T23:37:35.724Z,98.50
2019-02-12T23:40:04.919Z,99.90
2019-02-12T23:42:33.421Z,99.90
2019-02-12T23:45:01.886Z,99.90
2019-02-12T23:47:30.346Z,99.90
2019-02-12T23:49:58.867Z,99.90
2019-02-12T23:52:27.306Z,99.90
2019-02-12T23:54:55.770Z,99.90
2019-02-12T23:57:24.227Z,99.90
2019-02-12T23:59:52.673Z,99.90
